sensor_id;sensor_type;location;lat;lon;timestamp;P1;durP1;ratioP1;P2;durP2;ratioP2
27209;SDS011;14721;42.668;23.386;2023-03-23T00:01:17;57.70;;;23.53;;
27209;SDS011;14721;42.668;23.386;2023-03-23T00:03:50;53.07;;;22.50;;
27209;SDS011;14721;42.668;23.386;2023-03-23T00:06:17;53.33;;;22.70;;
27209;SDS011;14721;42.668;23.386;2023-03-23T00:08:44;48.57;;;21.80;;
27209;SDS011;14721;42.668;23.386;2023-03-23T00:11:15;52.70;;;23.77;;
27209;SDS011;14721;42.668;23.386;2023-03-23T00:13:46;66.43;;;27.57;;
27209;SDS011;14721;42.668;23.386;2023-03-23T00:16:16;64.37;;;27.07;;
27209;SDS011;14721;42.668;23.386;2023-03-23T00:18:44;61.30;;;25.63;;
27209;SDS011;14721;42.668;23.386;2023-03-23T00:21:21;61.97;;;25.60;;
27209;SDS011;14721;42.668;23.386;2023-03-23T00:24:00;82.00;;;26.67;;
27209;SDS011;14721;42.668;23.386;2023-03-23T00:26:34;56.83;;;26.03;;
27209;SDS011;14721;42.668;23.386;2023-03-23T00:29:05;71.97;;;28.00;;
27209;SDS011;14721;42.668;23.386;2023-03-23T00:31:33;55.50;;;25.10;;
27209;SDS011;14721;42.668;23.386;2023-03-23T00:34:00;60.27;;;23.90;;
27209;SDS011;14721;42.668;23.386;2023-03-23T00:36:29;60.30;;;23.83;;
27209;SDS011;14721;42.668;23.386;2023-03-23T00:38:57;48.10;;;22.33;;
27209;SDS011;14721;42.668;23.386;2023-03-23T00:41:25;59.93;;;25.47;;
27209;SDS011;14721;42.668;23.386;2023-03-23T00:43:57;64.07;;;26.40;;
27209;SDS011;14721;42.668;23.386;2023-03-23T00:46:27;72.47;;;26.70;;
27209;SDS011;14721;42.668;23.386;2023-03-23T00:48:53;70.60;;;26.13;;
27209;SDS011;14721;42.668;23.386;2023-03-23T00:51:22;68.33;;;26.00;;
27209;SDS011;14721;42.668;23.386;2023-03-23T00:53:49;72.40;;;25.53;;
27209;SDS011;14721;42.668;23.386;2023-03-23T00:56:16;71.67;;;26.07;;
27209;SDS011;14721;42.668;23.386;2023-03-23T00:58:41;68.03;;;23.00;;
27209;SDS011;14721;42.668;23.386;2023-03-23T01:01:08;80.30;;;23.07;;
27209;SDS011;14721;42.668;23.386;2023-03-23T01:03:34;84.00;;;26.67;;
27209;SDS011;14721;42.668;23.386;2023-03-23T01:06:04;94.93;;;28.27;;
27209;SDS011;14721;42.668;23.386;2023-03-23T01:08:34;91.50;;;29.53;;
27209;SDS011;14721;42.668;23.386;2023-03-23T01:11:05;66.37;;;23.90;;
27209;SDS011;14721;42.668;23.386;2023-03-23T01:13:33;67.57;;;24.80;;
27209;SDS011;14721;42.668;23.386;2023-03-23T01:15:58;67.97;;;23.40;;
27209;SDS011;14721;42.668;23.386;2023-03-23T01:18:26;51.87;;;20.83;;
27209;SDS011;14721;42.668;23.386;2023-03-23T01:20:52;44.20;;;18.40;;
27209;SDS011;14721;42.668;23.386;2023-03-23T01:23:18;39.93;;;17.80;;
27209;SDS011;14721;42.668;23.386;2023-03-23T01:25:44;33.63;;;17.73;;
27209;SDS011;14721;42.668;23.386;2023-03-23T01:28:10;29.43;;;15.60;;
27209;SDS011;14721;42.668;23.386;2023-03-23T01:30:38;23.93;;;12.90;;
27209;SDS011;14721;42.668;23.386;2023-03-23T01:33:03;26.07;;;14.77;;
27209;SDS011;14721;42.668;23.386;2023-03-23T01:35:29;35.53;;;15.23;;
27209;SDS011;14721;42.668;23.386;2023-03-23T01:37:56;31.77;;;14.67;;
27209;SDS011;14721;42.668;23.386;2023-03-23T01:40:26;36.90;;;17.20;;
27209;SDS011;14721;42.668;23.386;2023-03-23T01:42:54;36.80;;;16.50;;
27209;SDS011;14721;42.668;23.386;2023-03-23T01:50:58;35.47;;;17.00;;
27209;SDS011;14721;42.668;23.386;2023-03-23T01:53:54;36.07;;;16.37;;
27209;SDS011;14721;42.668;23.386;2023-03-23T01:56:25;37.93;;;17.67;;
27209;SDS011;14721;42.668;23.386;2023-03-23T01:58:55;39.80;;;17.63;;
27209;SDS011;14721;42.668;23.386;2023-03-23T02:01:21;46.43;;;17.53;;
27209;SDS011;14721;42.668;23.386;2023-03-23T02:03:51;37.17;;;18.93;;
27209;SDS011;14721;42.668;23.386;2023-03-23T02:06:18;44.23;;;18.87;;
27209;SDS011;14721;42.668;23.386;2023-03-23T02:08:43;36.50;;;16.77;;
27209;SDS011;14721;42.668;23.386;2023-03-23T02:11:14;36.80;;;16.50;;
27209;SDS011;14721;42.668;23.386;2023-03-23T02:13:44;39.23;;;16.90;;
27209;SDS011;14721;42.668;23.386;2023-03-23T02:24:30;38.00;;;17.00;;
27209;SDS011;14721;42.668;23.386;2023-03-23T02:38:02;84.00;;;26.13;;
27209;SDS011;14721;42.668;23.386;2023-03-23T02:40:40;62.43;;;21.67;;
27209;SDS011;14721;42.668;23.386;2023-03-23T02:43:12;95.90;;;22.83;;
27209;SDS011;14721;42.668;23.386;2023-03-23T02:45:40;79.93;;;25.17;;
27209;SDS011;14721;42.668;23.386;2023-03-23T02:48:10;61.63;;;24.03;;
27209;SDS011;14721;42.668;23.386;2023-03-23T02:50:42;62.00;;;21.63;;
27209;SDS011;14721;42.668;23.386;2023-03-23T02:53:12;51.20;;;22.83;;
27209;SDS011;14721;42.668;23.386;2023-03-23T02:55:42;68.67;;;22.90;;
27209;SDS011;14721;42.668;23.386;2023-03-23T02:58:09;51.87;;;22.97;;
27209;SDS011;14721;42.668;23.386;2023-03-23T03:00:36;62.23;;;22.73;;
27209;SDS011;14721;42.668;23.386;2023-03-23T03:03:11;65.93;;;23.37;;
27209;SDS011;14721;42.668;23.386;2023-03-23T03:11:20;45.57;;;21.63;;
27209;SDS011;14721;42.668;23.386;2023-03-23T03:16:52;44.57;;;20.80;;
27209;SDS011;14721;42.668;23.386;2023-03-23T03:19:32;43.60;;;19.73;;
27209;SDS011;14721;42.668;23.386;2023-03-23T03:22:03;44.27;;;20.47;;
27209;SDS011;14721;42.668;23.386;2023-03-23T03:24:32;42.77;;;20.47;;
27209;SDS011;14721;42.668;23.386;2023-03-23T03:27:02;46.27;;;19.20;;
27209;SDS011;14721;42.668;23.386;2023-03-23T03:29:36;50.10;;;22.40;;
27209;SDS011;14721;42.668;23.386;2023-03-23T03:32:08;43.50;;;20.10;;
27209;SDS011;14721;42.668;23.386;2023-03-23T03:34:39;49.93;;;20.40;;
27209;SDS011;14721;42.668;23.386;2023-03-23T03:37:05;53.87;;;22.40;;
27209;SDS011;14721;42.668;23.386;2023-03-23T03:39:34;52.60;;;20.43;;
27209;SDS011;14721;42.668;23.386;2023-03-23T03:42:04;49.07;;;21.97;;
27209;SDS011;14721;42.668;23.386;2023-03-23T03:44:31;49.70;;;21.53;;
27209;SDS011;14721;42.668;23.386;2023-03-23T03:46:58;51.97;;;21.50;;
27209;SDS011;14721;42.668;23.386;2023-03-23T03:49:24;50.57;;;22.13;;
27209;SDS011;14721;42.668;23.386;2023-03-23T03:51:51;47.87;;;21.07;;
27209;SDS011;14721;42.668;23.386;2023-03-23T03:54:17;48.00;;;20.80;;
27209;SDS011;14721;42.668;23.386;2023-03-23T03:56:42;50.73;;;21.80;;
27209;SDS011;14721;42.668;23.386;2023-03-23T03:59:10;53.43;;;22.77;;
27209;SDS011;14721;42.668;23.386;2023-03-23T04:01:38;58.53;;;21.83;;
27209;SDS011;14721;42.668;23.386;2023-03-23T04:04:04;34.57;;;17.60;;
27209;SDS011;14721;42.668;23.386;2023-03-23T04:06:39;36.27;;;16.20;;
27209;SDS011;14721;42.668;23.386;2023-03-23T04:09:06;33.13;;;15.67;;
27209;SDS011;14721;42.668;23.386;2023-03-23T04:11:32;35.80;;;16.97;;
27209;SDS011;14721;42.668;23.386;2023-03-23T04:13:59;22.50;;;11.53;;
27209;SDS011;14721;42.668;23.386;2023-03-23T04:16:24;22.90;;;11.67;;
27209;SDS011;14721;42.668;23.386;2023-03-23T04:18:51;19.60;;;10.83;;
27209;SDS011;14721;42.668;23.386;2023-03-23T04:21:21;26.53;;;11.00;;
27209;SDS011;14721;42.668;23.386;2023-03-23T04:23:47;22.00;;;11.60;;
27209;SDS011;14721;42.668;23.386;2023-03-23T04:26:13;28.60;;;12.87;;
27209;SDS011;14721;42.668;23.386;2023-03-23T04:28:39;19.53;;;9.63;;
27209;SDS011;14721;42.668;23.386;2023-03-23T04:31:06;16.80;;;9.77;;
27209;SDS011;14721;42.668;23.386;2023-03-23T04:33:38;19.23;;;10.27;;
27209;SDS011;14721;42.668;23.386;2023-03-23T04:36:53;30.03;;;13.43;;
27209;SDS011;14721;42.668;23.386;2023-03-23T04:39:18;26.77;;;12.13;;
27209;SDS011;14721;42.668;23.386;2023-03-23T04:41:44;31.63;;;14.37;;
27209;SDS011;14721;42.668;23.386;2023-03-23T04:44:15;33.73;;;14.10;;
27209;SDS011;14721;42.668;23.386;2023-03-23T04:50:52;28.23;;;14.63;;
27209;SDS011;14721;42.668;23.386;2023-03-23T04:53:28;24.03;;;13.47;;
27209;SDS011;14721;42.668;23.386;2023-03-23T04:55:56;25.57;;;14.17;;
27209;SDS011;14721;42.668;23.386;2023-03-23T04:58:21;30.63;;;14.07;;
27209;SDS011;14721;42.668;23.386;2023-03-23T05:00:50;32.03;;;15.43;;
27209;SDS011;14721;42.668;23.386;2023-03-23T05:03:17;29.03;;;14.60;;
27209;SDS011;14721;42.668;23.386;2023-03-23T05:05:43;31.20;;;13.80;;
27209;SDS011;14721;42.668;23.386;2023-03-23T05:08:17;30.80;;;13.97;;
27209;SDS011;14721;42.668;23.386;2023-03-23T05:10:57;32.53;;;15.60;;
27209;SDS011;14721;42.668;23.386;2023-03-23T05:13:24;33.00;;;15.93;;
27209;SDS011;14721;42.668;23.386;2023-03-23T05:15:50;28.83;;;15.53;;
27209;SDS011;14721;42.668;23.386;2023-03-23T05:18:17;33.27;;;15.70;;
27209;SDS011;14721;42.668;23.386;2023-03-23T05:20:45;36.80;;;14.67;;
27209;SDS011;14721;42.668;23.386;2023-03-23T05:23:12;33.57;;;15.57;;
27209;SDS011;14721;42.668;23.386;2023-03-23T05:25:38;37.33;;;17.70;;
27209;SDS011;14721;42.668;23.386;2023-03-23T05:28:07;40.97;;;18.47;;
27209;SDS011;14721;42.668;23.386;2023-03-23T05:30:34;32.63;;;15.10;;
27209;SDS011;14721;42.668;23.386;2023-03-23T05:33:00;40.47;;;18.60;;
27209;SDS011;14721;42.668;23.386;2023-03-23T05:35:27;41.33;;;21.17;;
27209;SDS011;14721;42.668;23.386;2023-03-23T05:37:54;46.13;;;22.23;;
27209;SDS011;14721;42.668;23.386;2023-03-23T05:40:21;53.63;;;26.17;;
27209;SDS011;14721;42.668;23.386;2023-03-23T05:42:49;43.63;;;22.17;;
27209;SDS011;14721;42.668;23.386;2023-03-23T05:45:15;47.10;;;22.50;;
27209;SDS011;14721;42.668;23.386;2023-03-23T05:47:41;48.93;;;25.50;;
27209;SDS011;14721;42.668;23.386;2023-03-23T05:50:09;48.23;;;24.37;;
27209;SDS011;14721;42.668;23.386;2023-03-23T05:52:36;43.67;;;21.60;;
27209;SDS011;14721;42.668;23.386;2023-03-23T05:55:02;36.60;;;18.27;;
27209;SDS011;14721;42.668;23.386;2023-03-23T05:57:29;34.10;;;16.50;;
27209;SDS011;14721;42.668;23.386;2023-03-23T05:59:56;37.23;;;17.60;;
27209;SDS011;14721;42.668;23.386;2023-03-23T06:02:23;29.80;;;16.63;;
27209;SDS011;14721;42.668;23.386;2023-03-23T06:04:53;33.27;;;16.37;;
27209;SDS011;14721;42.668;23.386;2023-03-23T06:07:23;37.93;;;17.37;;
27209;SDS011;14721;42.668;23.386;2023-03-23T06:09:50;37.97;;;17.40;;
27209;SDS011;14721;42.668;23.386;2023-03-23T06:12:16;41.33;;;20.10;;
27209;SDS011;14721;42.668;23.386;2023-03-23T06:14:46;41.67;;;21.90;;
27209;SDS011;14721;42.668;23.386;2023-03-23T06:17:13;38.83;;;20.20;;
27209;SDS011;14721;42.668;23.386;2023-03-23T06:19:42;36.60;;;20.03;;
27209;SDS011;14721;42.668;23.386;2023-03-23T06:22:09;33.30;;;17.87;;
27209;SDS011;14721;42.668;23.386;2023-03-23T06:24:35;32.33;;;18.23;;
27209;SDS011;14721;42.668;23.386;2023-03-23T06:27:01;39.47;;;17.97;;
27209;SDS011;14721;42.668;23.386;2023-03-23T06:29:27;31.50;;;15.87;;
27209;SDS011;14721;42.668;23.386;2023-03-23T06:31:57;32.87;;;16.67;;
27209;SDS011;14721;42.668;23.386;2023-03-23T06:34:25;28.80;;;15.03;;
27209;SDS011;14721;42.668;23.386;2023-03-23T06:36:51;28.80;;;14.70;;
27209;SDS011;14721;42.668;23.386;2023-03-23T06:39:17;25.70;;;14.57;;
27209;SDS011;14721;42.668;23.386;2023-03-23T06:41:43;25.47;;;13.97;;
27209;SDS011;14721;42.668;23.386;2023-03-23T06:44:08;29.50;;;16.00;;
27209;SDS011;14721;42.668;23.386;2023-03-23T06:46:38;26.40;;;13.63;;
27209;SDS011;14721;42.668;23.386;2023-03-23T06:49:04;28.07;;;15.70;;
27209;SDS011;14721;42.668;23.386;2023-03-23T06:51:30;28.33;;;15.27;;
27209;SDS011;14721;42.668;23.386;2023-03-23T06:53:55;31.37;;;15.20;;
27209;SDS011;14721;42.668;23.386;2023-03-23T06:56:22;27.33;;;14.43;;
27209;SDS011;14721;42.668;23.386;2023-03-23T06:58:48;32.63;;;16.47;;
27209;SDS011;14721;42.668;23.386;2023-03-23T07:01:14;29.63;;;15.53;;
27209;SDS011;14721;42.668;23.386;2023-03-23T07:03:41;27.70;;;16.03;;
27209;SDS011;14721;42.668;23.386;2023-03-23T07:06:08;31.03;;;16.47;;
27209;SDS011;14721;42.668;23.386;2023-03-23T07:08:36;27.90;;;16.13;;
27209;SDS011;14721;42.668;23.386;2023-03-23T07:11:02;27.27;;;17.27;;
27209;SDS011;14721;42.668;23.386;2023-03-23T07:13:28;34.40;;;17.53;;
27209;SDS011;14721;42.668;23.386;2023-03-23T07:15:54;30.37;;;15.60;;
27209;SDS011;14721;42.668;23.386;2023-03-23T07:18:21;27.17;;;15.27;;
27209;SDS011;14721;42.668;23.386;2023-03-23T07:20:48;27.53;;;16.27;;
27209;SDS011;14721;42.668;23.386;2023-03-23T07:23:15;29.73;;;15.33;;
27209;SDS011;14721;42.668;23.386;2023-03-23T07:25:41;32.73;;;18.00;;
27209;SDS011;14721;42.668;23.386;2023-03-23T07:28:08;26.73;;;14.50;;
27209;SDS011;14721;42.668;23.386;2023-03-23T07:30:34;21.88;;;14.82;;
27209;SDS011;14721;42.668;23.386;2023-03-23T07:33:03;26.40;;;14.87;;
27209;SDS011;14721;42.668;23.386;2023-03-23T07:35:30;28.60;;;16.63;;
27209;SDS011;14721;42.668;23.386;2023-03-23T07:37:56;30.40;;;15.87;;
27209;SDS011;14721;42.668;23.386;2023-03-23T07:40:22;26.17;;;15.40;;
27209;SDS011;14721;42.668;23.386;2023-03-23T07:42:52;24.98;;;14.85;;
27209;SDS011;14721;42.668;23.386;2023-03-23T07:45:19;26.73;;;15.13;;
27209;SDS011;14721;42.668;23.386;2023-03-23T07:47:44;31.83;;;15.73;;
27209;SDS011;14721;42.668;23.386;2023-03-23T07:50:10;25.52;;;15.73;;
27209;SDS011;14721;42.668;23.386;2023-03-23T07:52:37;25.48;;;14.07;;
27209;SDS011;14721;42.668;23.386;2023-03-23T07:55:05;23.25;;;13.48;;
27209;SDS011;14721;42.668;23.386;2023-03-23T07:57:31;25.65;;;15.10;;
27209;SDS011;14721;42.668;23.386;2023-03-23T07:59:58;30.95;;;15.38;;
27209;SDS011;14721;42.668;23.386;2023-03-23T08:02:24;24.83;;;14.98;;
27209;SDS011;14721;42.668;23.386;2023-03-23T08:04:51;23.23;;;13.13;;
27209;SDS011;14721;42.668;23.386;2023-03-23T08:07:18;28.27;;;17.13;;
27209;SDS011;14721;42.668;23.386;2023-03-23T08:09:45;26.13;;;14.63;;
27209;SDS011;14721;42.668;23.386;2023-03-23T08:12:12;34.00;;;15.55;;
27209;SDS011;14721;42.668;23.386;2023-03-23T08:14:38;30.45;;;15.02;;
27209;SDS011;14721;42.668;23.386;2023-03-23T08:17:06;25.30;;;14.27;;
27209;SDS011;14721;42.668;23.386;2023-03-23T08:19:34;22.23;;;13.00;;
27209;SDS011;14721;42.668;23.386;2023-03-23T08:22:02;26.90;;;14.43;;
27209;SDS011;14721;42.668;23.386;2023-03-23T08:24:33;22.55;;;13.77;;
27209;SDS011;14721;42.668;23.386;2023-03-23T08:26:59;28.38;;;15.63;;
27209;SDS011;14721;42.668;23.386;2023-03-23T08:29:25;28.35;;;14.18;;
27209;SDS011;14721;42.668;23.386;2023-03-23T08:31:58;21.80;;;12.60;;
27209;SDS011;14721;42.668;23.386;2023-03-23T08:34:24;21.10;;;12.35;;
27209;SDS011;14721;42.668;23.386;2023-03-23T08:36:50;21.38;;;12.65;;
27209;SDS011;14721;42.668;23.386;2023-03-23T08:39:16;24.48;;;12.07;;
27209;SDS011;14721;42.668;23.386;2023-03-23T08:41:43;21.80;;;13.80;;
27209;SDS011;14721;42.668;23.386;2023-03-23T08:44:10;21.35;;;13.27;;
27209;SDS011;14721;42.668;23.386;2023-03-23T08:46:35;21.25;;;12.50;;
27209;SDS011;14721;42.668;23.386;2023-03-23T08:49:01;23.88;;;12.65;;
27209;SDS011;14721;42.668;23.386;2023-03-23T08:51:27;23.85;;;12.05;;
27209;SDS011;14721;42.668;23.386;2023-03-23T08:53:52;19.40;;;10.43;;
27209;SDS011;14721;42.668;23.386;2023-03-23T08:56:19;20.15;;;9.50;;
27209;SDS011;14721;42.668;23.386;2023-03-23T08:58:45;13.45;;;8.30;;
27209;SDS011;14721;42.668;23.386;2023-03-23T09:01:10;17.85;;;9.70;;
27209;SDS011;14721;42.668;23.386;2023-03-23T09:03:36;13.13;;;7.53;;
27209;SDS011;14721;42.668;23.386;2023-03-23T09:06:03;13.40;;;6.22;;
27209;SDS011;14721;42.668;23.386;2023-03-23T09:08:30;11.23;;;6.72;;
27209;SDS011;14721;42.668;23.386;2023-03-23T09:10:59;13.82;;;7.25;;
27209;SDS011;14721;42.668;23.386;2023-03-23T09:13:25;10.23;;;6.43;;
27209;SDS011;14721;42.668;23.386;2023-03-23T09:15:51;14.98;;;7.50;;
27209;SDS011;14721;42.668;23.386;2023-03-23T09:18:17;12.55;;;6.45;;
27209;SDS011;14721;42.668;23.386;2023-03-23T09:20:43;9.45;;;5.40;;
27209;SDS011;14721;42.668;23.386;2023-03-23T09:23:09;11.68;;;5.55;;
27209;SDS011;14721;42.668;23.386;2023-03-23T09:25:35;12.60;;;6.28;;
27209;SDS011;14721;42.668;23.386;2023-03-23T09:28:00;11.00;;;5.75;;
27209;SDS011;14721;42.668;23.386;2023-03-23T09:30:30;9.57;;;5.47;;
27209;SDS011;14721;42.668;23.386;2023-03-23T09:32:59;13.68;;;6.47;;
27209;SDS011;14721;42.668;23.386;2023-03-23T09:35:26;9.60;;;4.82;;
27209;SDS011;14721;42.668;23.386;2023-03-23T09:37:52;13.00;;;5.00;;
27209;SDS011;14721;42.668;23.386;2023-03-23T09:40:22;10.18;;;5.00;;
27209;SDS011;14721;42.668;23.386;2023-03-23T09:43:09;9.45;;;4.75;;
27209;SDS011;14721;42.668;23.386;2023-03-23T09:54:18;12.38;;;5.63;;
27209;SDS011;14721;42.668;23.386;2023-03-23T09:56:48;9.68;;;4.32;;
27209;SDS011;14721;42.668;23.386;2023-03-23T09:59:18;8.98;;;5.10;;
27209;SDS011;14721;42.668;23.386;2023-03-23T10:01:48;10.30;;;5.15;;
27209;SDS011;14721;42.668;23.386;2023-03-23T10:07:08;9.55;;;5.85;;
27209;SDS011;14721;42.668;23.386;2023-03-23T10:09:39;8.60;;;4.57;;
27209;SDS011;14721;42.668;23.386;2023-03-23T10:12:15;9.30;;;5.32;;
27209;SDS011;14721;42.668;23.386;2023-03-23T10:15:18;9.80;;;5.70;;
27209;SDS011;14721;42.668;23.386;2023-03-23T10:29:17;10.05;;;4.85;;
27209;SDS011;14721;42.668;23.386;2023-03-23T10:32:08;8.38;;;4.53;;
27209;SDS011;14721;42.668;23.386;2023-03-23T10:34:45;8.43;;;4.82;;
27209;SDS011;14721;42.668;23.386;2023-03-23T10:37:20;8.27;;;4.65;;
27209;SDS011;14721;42.668;23.386;2023-03-23T10:39:59;8.55;;;4.47;;
27209;SDS011;14721;42.668;23.386;2023-03-23T10:42:27;8.63;;;4.80;;
27209;SDS011;14721;42.668;23.386;2023-03-23T10:45:10;8.03;;;4.43;;
27209;SDS011;14721;42.668;23.386;2023-03-23T10:47:43;9.57;;;5.40;;
27209;SDS011;14721;42.668;23.386;2023-03-23T10:50:14;9.60;;;4.70;;
27209;SDS011;14721;42.668;23.386;2023-03-23T10:52:42;7.65;;;4.65;;
27209;SDS011;14721;42.668;23.386;2023-03-23T10:58:04;8.77;;;4.88;;
27209;SDS011;14721;42.668;23.386;2023-03-23T11:00:32;10.75;;;5.38;;
27209;SDS011;14721;42.668;23.386;2023-03-23T11:02:59;10.60;;;5.00;;
27209;SDS011;14721;42.668;23.386;2023-03-23T11:05:38;8.50;;;5.30;;
27209;SDS011;14721;42.668;23.386;2023-03-23T11:08:14;8.07;;;4.45;;
27209;SDS011;14721;42.668;23.386;2023-03-23T11:10:50;9.55;;;4.00;;
27209;SDS011;14721;42.668;23.386;2023-03-23T11:13:21;5.97;;;4.00;;
27209;SDS011;14721;42.668;23.386;2023-03-23T11:15:52;6.63;;;4.10;;
27209;SDS011;14721;42.668;23.386;2023-03-23T11:18:23;9.20;;;4.90;;
27209;SDS011;14721;42.668;23.386;2023-03-23T11:20:56;6.80;;;4.30;;
27209;SDS011;14721;42.668;23.386;2023-03-23T11:26:10;7.25;;;4.50;;
27209;SDS011;14721;42.668;23.386;2023-03-23T11:28:56;7.85;;;4.40;;
27209;SDS011;14721;42.668;23.386;2023-03-23T11:31:40;8.07;;;4.72;;
27209;SDS011;14721;42.668;23.386;2023-03-23T11:36:50;7.57;;;4.80;;
27209;SDS011;14721;42.668;23.386;2023-03-23T11:39:29;8.60;;;4.22;;
27209;SDS011;14721;42.668;23.386;2023-03-23T11:42:00;9.13;;;4.93;;
27209;SDS011;14721;42.668;23.386;2023-03-23T11:44:40;8.68;;;4.60;;
27209;SDS011;14721;42.668;23.386;2023-03-23T11:50:24;11.50;;;5.13;;
27209;SDS011;14721;42.668;23.386;2023-03-23T11:53:07;9.07;;;4.72;;
27209;SDS011;14721;42.668;23.386;2023-03-23T11:58:13;7.57;;;4.13;;
27209;SDS011;14721;42.668;23.386;2023-03-23T12:00:46;9.55;;;4.70;;
27209;SDS011;14721;42.668;23.386;2023-03-23T12:09:05;9.43;;;4.40;;
27209;SDS011;14721;42.668;23.386;2023-03-23T12:14:48;8.57;;;4.28;;
27209;SDS011;14721;42.668;23.386;2023-03-23T12:17:33;7.55;;;4.07;;
27209;SDS011;14721;42.668;23.386;2023-03-23T12:28:28;6.90;;;4.25;;
27209;SDS011;14721;42.668;23.386;2023-03-23T12:31:17;10.18;;;4.80;;
27209;SDS011;14721;42.668;23.386;2023-03-23T12:37:06;9.50;;;4.70;;
27209;SDS011;14721;42.668;23.386;2023-03-23T12:44:35;6.13;;;4.13;;
27209;SDS011;14721;42.668;23.386;2023-03-23T12:49:45;7.90;;;4.30;;
27209;SDS011;14721;42.668;23.386;2023-03-23T12:58:13;6.53;;;3.78;;
27209;SDS011;14721;42.668;23.386;2023-03-23T13:00:52;7.55;;;4.50;;
27209;SDS011;14721;42.668;23.386;2023-03-23T13:06:02;7.47;;;4.50;;
27209;SDS011;14721;42.668;23.386;2023-03-23T13:08:44;8.35;;;4.15;;
27209;SDS011;14721;42.668;23.386;2023-03-23T13:11:16;7.00;;;4.53;;
27209;SDS011;14721;42.668;23.386;2023-03-23T13:13:48;6.63;;;4.22;;
27209;SDS011;14721;42.668;23.386;2023-03-23T13:24:31;8.23;;;4.68;;
27209;SDS011;14721;42.668;23.386;2023-03-23T13:27:02;8.43;;;3.88;;
27209;SDS011;14721;42.668;23.386;2023-03-23T13:29:31;9.05;;;4.80;;
27209;SDS011;14721;42.668;23.386;2023-03-23T13:32:11;7.07;;;4.25;;
27209;SDS011;14721;42.668;23.386;2023-03-23T13:34:41;6.07;;;4.20;;
27209;SDS011;14721;42.668;23.386;2023-03-23T13:37:19;5.20;;;3.17;;
27209;SDS011;14721;42.668;23.386;2023-03-23T13:39:49;13.07;;;7.70;;
27209;SDS011;14721;42.668;23.386;2023-03-23T13:42:21;7.95;;;4.45;;
27209;SDS011;14721;42.668;23.386;2023-03-23T13:47:20;6.78;;;4.43;;
27209;SDS011;14721;42.668;23.386;2023-03-23T13:50:42;11.65;;;7.28;;
27209;SDS011;14721;42.668;23.386;2023-03-23T13:52:39;7.70;;;4.32;;
27209;SDS011;14721;42.668;23.386;2023-03-23T13:58:48;7.85;;;4.70;;
27209;SDS011;14721;42.668;23.386;2023-03-23T14:01:17;11.25;;;4.68;;
27209;SDS011;14721;42.668;23.386;2023-03-23T14:03:45;8.50;;;4.50;;
27209;SDS011;14721;42.668;23.386;2023-03-23T14:06:16;8.35;;;4.18;;
27209;SDS011;14721;42.668;23.386;2023-03-23T14:08:46;10.77;;;4.53;;
27209;SDS011;14721;42.668;23.386;2023-03-23T14:11:16;15.48;;;5.15;;
27209;SDS011;14721;42.668;23.386;2023-03-23T14:13:46;6.43;;;3.65;;
27209;SDS011;14721;42.668;23.386;2023-03-23T14:16:19;8.15;;;3.97;;
27209;SDS011;14721;42.668;23.386;2023-03-23T14:18:57;5.10;;;3.53;;
27209;SDS011;14721;42.668;23.386;2023-03-23T14:23:53;7.75;;;3.22;;
27209;SDS011;14721;42.668;23.386;2023-03-23T14:26:21;6.68;;;3.40;;
27209;SDS011;14721;42.668;23.386;2023-03-23T14:28:49;7.85;;;4.22;;
27209;SDS011;14721;42.668;23.386;2023-03-23T14:31:21;6.80;;;4.03;;
27209;SDS011;14721;42.668;23.386;2023-03-23T14:33:48;6.63;;;3.90;;
27209;SDS011;14721;42.668;23.386;2023-03-23T14:36:22;4.80;;;3.35;;
27209;SDS011;14721;42.668;23.386;2023-03-23T14:39:12;6.63;;;4.20;;
27209;SDS011;14721;42.668;23.386;2023-03-23T14:41:41;12.98;;;6.40;;
27209;SDS011;14721;42.668;23.386;2023-03-23T14:44:11;6.05;;;3.55;;
27209;SDS011;14721;42.668;23.386;2023-03-23T14:46:41;6.78;;;3.65;;
27209;SDS011;14721;42.668;23.386;2023-03-23T14:49:13;7.80;;;3.67;;
27209;SDS011;14721;42.668;23.386;2023-03-23T14:51:51;8.38;;;4.53;;
27209;SDS011;14721;42.668;23.386;2023-03-23T14:54:25;7.18;;;3.97;;
27209;SDS011;14721;42.668;23.386;2023-03-23T14:56:53;8.07;;;4.40;;
27209;SDS011;14721;42.668;23.386;2023-03-23T14:59:19;6.95;;;4.10;;
27209;SDS011;14721;42.668;23.386;2023-03-23T15:01:45;6.13;;;4.22;;
27209;SDS011;14721;42.668;23.386;2023-03-23T15:06:43;7.53;;;4.05;;
27209;SDS011;14721;42.668;23.386;2023-03-23T15:09:12;13.93;;;4.05;;
27209;SDS011;14721;42.668;23.386;2023-03-23T15:11:40;7.82;;;3.95;;
27209;SDS011;14721;42.668;23.386;2023-03-23T15:17:18;7.00;;;4.03;;
27209;SDS011;14721;42.668;23.386;2023-03-23T15:19:46;9.13;;;4.25;;
27209;SDS011;14721;42.668;23.386;2023-03-23T15:22:20;9.05;;;4.35;;
27209;SDS011;14721;42.668;23.386;2023-03-23T15:27:34;6.60;;;4.03;;
27209;SDS011;14721;42.668;23.386;2023-03-23T15:30:46;8.30;;;4.15;;
27209;SDS011;14721;42.668;23.386;2023-03-23T15:33:09;6.63;;;4.00;;
27209;SDS011;14721;42.668;23.386;2023-03-23T15:35:37;8.90;;;4.75;;
27209;SDS011;14721;42.668;23.386;2023-03-23T15:38:15;8.18;;;4.50;;
27209;SDS011;14721;42.668;23.386;2023-03-23T15:40:52;6.50;;;3.95;;
27209;SDS011;14721;42.668;23.386;2023-03-23T15:48:21;6.60;;;4.07;;
27209;SDS011;14721;42.668;23.386;2023-03-23T15:50:48;6.82;;;3.83;;
27209;SDS011;14721;42.668;23.386;2023-03-23T15:53:36;9.35;;;4.38;;
27209;SDS011;14721;42.668;23.386;2023-03-23T15:56:03;6.90;;;4.57;;
27209;SDS011;14721;42.668;23.386;2023-03-23T15:58:30;6.55;;;3.75;;
27209;SDS011;14721;42.668;23.386;2023-03-23T16:00:57;6.10;;;3.75;;
27209;SDS011;14721;42.668;23.386;2023-03-23T16:03:29;8.07;;;4.67;;
27209;SDS011;14721;42.668;23.386;2023-03-23T16:06:00;8.40;;;4.55;;
27209;SDS011;14721;42.668;23.386;2023-03-23T16:08:27;8.65;;;4.65;;
27209;SDS011;14721;42.668;23.386;2023-03-23T16:10:53;8.65;;;4.03;;
27209;SDS011;14721;42.668;23.386;2023-03-23T16:13:19;7.10;;;4.07;;
27209;SDS011;14721;42.668;23.386;2023-03-23T16:15:45;6.40;;;3.53;;
27209;SDS011;14721;42.668;23.386;2023-03-23T16:18:16;9.07;;;4.70;;
27209;SDS011;14721;42.668;23.386;2023-03-23T16:20:44;8.27;;;3.87;;
27209;SDS011;14721;42.668;23.386;2023-03-23T16:23:10;10.07;;;4.33;;
27209;SDS011;14721;42.668;23.386;2023-03-23T16:25:35;8.33;;;4.40;;
27209;SDS011;14721;42.668;23.386;2023-03-23T16:28:01;11.40;;;5.10;;
27209;SDS011;14721;42.668;23.386;2023-03-23T16:30:27;8.98;;;4.65;;
27209;SDS011;14721;42.668;23.386;2023-03-23T16:32:54;8.57;;;5.03;;
27209;SDS011;14721;42.668;23.386;2023-03-23T16:35:19;9.20;;;4.20;;
27209;SDS011;14721;42.668;23.386;2023-03-23T16:37:49;8.57;;;4.57;;
27209;SDS011;14721;42.668;23.386;2023-03-23T16:40:17;9.23;;;4.93;;
27209;SDS011;14721;42.668;23.386;2023-03-23T16:42:44;10.47;;;5.43;;
27209;SDS011;14721;42.668;23.386;2023-03-23T16:45:10;8.30;;;4.20;;
27209;SDS011;14721;42.668;23.386;2023-03-23T16:47:37;8.40;;;4.90;;
27209;SDS011;14721;42.668;23.386;2023-03-23T16:50:04;10.90;;;5.67;;
27209;SDS011;14721;42.668;23.386;2023-03-23T16:52:31;11.07;;;4.67;;
27209;SDS011;14721;42.668;23.386;2023-03-23T16:54:56;17.97;;;6.33;;